Adair, Illinois
Current Conditions -  °F | °C
As of 1:55 AM on Friday 24 Oct 2014 (Local Time) from KMQB Reporting Station
Overcast Overcast  
Wind Chill: 53°   Ceiling: 3400
Heat Index: 53°   Visibility: 10mi
Dew Point: 51°   Wind: 5mph
Humidity: 93%   Direction: 260°W
Pressure: 30.08"   Gusts: NA
Location:  40.42°N, 90.5°W
Report Text: KMQB 240655Z AUTO 26004KT 10SM OVC034 12/11 A3008 RMK AO2 T01160105
Loading
Personal Weather Stations






























Interactive Weather Map
Tropical Storm Tracking
New forecast layout! Learn more

10-Day Weather Forecast

Advertisements
Track Severe Weather on mobile